CFG1594 EDDF-LGRP
Flight info
| Callsign | CFG1594 |
|---|---|
| Flight time | N/A |
| Altitude | 33000 |
| Route | CINDY2D CINDY Z74 LAMPU DCT NOMBO Y161 MAH DCT VAVOR DCT RADIZ DCT GORPA DCT DEVUL DCT LIKVI DCT REMSO DCT MEDUX UM867 KOGAT DCT ERANA DCT TSL UN130 MES UN139 LURUS UL995 USINI L995 CODIC |
| Aircraft | A321/M-SDE3FGHIRWY/LB1 |
Departure
| Time | N/A |
|---|---|
| Airport | Frankfurt Main Airport (EDDF) |
Arrival
| Time | 2026-05-01 07:59 |
|---|---|
| Airport | Rhodes International Airport "Diagoras" (LGRP) |
| Time | Latitude | Longitude | Altitude | Speed | Heading |
|---|---|---|---|---|---|
| 2026-05-01 07:23 | 38.57385 | 25.49797 | 33095 ft | 503 kts | 140° |
| 2026-05-01 07:24 | 38.49955 | 25.59237 | 33093 ft | 502 kts | 140° |
| 2026-05-01 07:24 | 38.45000 | 25.65511 | 33083 ft | 503 kts | 141° |
| 2026-05-01 07:25 | 38.40031 | 25.71794 | 33081 ft | 503 kts | 141° |
| 2026-05-01 07:25 | 38.35068 | 25.78062 | 33073 ft | 503 kts | 141° |
| 2026-05-01 07:26 | 38.30080 | 25.84225 | 33065 ft | 501 kts | 144° |
| 2026-05-01 07:26 | 38.24565 | 25.89516 | 33058 ft | 493 kts | 154° |
| 2026-05-01 07:27 | 38.18562 | 25.93560 | 33052 ft | 484 kts | 165° |
| 2026-05-01 07:27 | 38.12309 | 25.96519 | 33044 ft | 481 kts | 169° |
| 2026-05-01 07:28 | 38.06022 | 25.99322 | 33045 ft | 481 kts | 169° |
| 2026-05-01 07:28 | 37.99680 | 26.02180 | 33035 ft | 484 kts | 168° |
| 2026-05-01 07:29 | 37.93359 | 26.05048 | 33028 ft | 484 kts | 168° |
| 2026-05-01 07:29 | 37.87011 | 26.07925 | 33032 ft | 484 kts | 168° |
| 2026-05-01 07:30 | 37.80656 | 26.10802 | 33016 ft | 484 kts | 168° |
| 2026-05-01 07:30 | 37.74337 | 26.13653 | 33025 ft | 485 kts | 168° |
| 2026-05-01 07:31 | 37.67966 | 26.16522 | 33014 ft | 486 kts | 168° |
| 2026-05-01 07:32 | 37.52063 | 26.23659 | 33015 ft | 488 kts | 168° |
| 2026-05-01 07:33 | 37.42459 | 26.27953 | 33013 ft | 487 kts | 168° |
| 2026-05-01 07:33 | 37.32903 | 26.32211 | 33011 ft | 489 kts | 168° |
| 2026-05-01 07:34 | 37.23293 | 26.36484 | 33009 ft | 488 kts | 168° |
| 2026-05-01 07:35 | 37.16878 | 26.39331 | 33006 ft | 490 kts | 168° |
| 2026-05-01 07:35 | 37.10445 | 26.42184 | 33005 ft | 491 kts | 168° |
| 2026-05-01 07:36 | 37.04023 | 26.45027 | 33003 ft | 491 kts | 168° |
| 2026-05-01 07:36 | 36.97606 | 26.47864 | 32998 ft | 492 kts | 167° |
| 2026-05-01 07:37 | 36.88855 | 26.55091 | 32989 ft | 519 kts | 136° |
| 2026-05-01 07:37 | 36.86629 | 26.58675 | 32993 ft | 524 kts | 125° |
| 2026-05-01 07:37 | 36.84907 | 26.62660 | 33001 ft | 526 kts | 115° |
| 2026-05-01 07:38 | 36.82172 | 26.71084 | 32994 ft | 525 kts | 113° |
| 2026-05-01 07:39 | 36.77960 | 26.83618 | 32986 ft | 524 kts | 114° |
| 2026-05-01 07:39 | 36.73637 | 26.96089 | 31643 ft | 530 kts | 114° |
| 2026-05-01 07:40 | 36.72174 | 27.00308 | 30752 ft | 533 kts | 115° |
| 2026-05-01 07:40 | 36.70713 | 27.04513 | 30025 ft | 531 kts | 115° |
| 2026-05-01 07:40 | 36.69248 | 27.08719 | 29304 ft | 528 kts | 115° |
| 2026-05-01 07:40 | 36.67791 | 27.12901 | 28515 ft | 526 kts | 115° |
| 2026-05-01 07:41 | 36.66342 | 27.17051 | 27710 ft | 524 kts | 115° |
| 2026-05-01 07:41 | 36.64900 | 27.21173 | 26873 ft | 522 kts | 115° |
| 2026-05-01 07:41 | 36.62031 | 27.29363 | 25547 ft | 509 kts | 115° |
| 2026-05-01 07:42 | 36.60628 | 27.33358 | 24974 ft | 502 kts | 115° |
| 2026-05-01 07:42 | 36.59253 | 27.37263 | 24365 ft | 495 kts | 115° |
| 2026-05-01 07:42 | 36.57885 | 27.41149 | 23740 ft | 489 kts | 115° |
| 2026-05-01 07:42 | 36.56540 | 27.44965 | 23155 ft | 483 kts | 115° |
| 2026-05-01 07:43 | 36.55190 | 27.48786 | 22537 ft | 477 kts | 115° |
| 2026-05-01 07:43 | 36.53873 | 27.52506 | 21916 ft | 472 kts | 115° |
| 2026-05-01 07:43 | 36.51266 | 27.59858 | 20686 ft | 462 kts | 115° |
| 2026-05-01 07:44 | 36.48700 | 27.67088 | 19500 ft | 452 kts | 116° |
| 2026-05-01 07:44 | 36.46477 | 27.74274 | 18324 ft | 444 kts | 106° |
| 2026-05-01 07:45 | 36.45838 | 27.78000 | 17756 ft | 440 kts | 101° |
| 2026-05-01 07:45 | 36.45350 | 27.81698 | 17172 ft | 436 kts | 99° |
| 2026-05-01 07:45 | 36.44885 | 27.85394 | 16567 ft | 433 kts | 99° |
| 2026-05-01 07:45 | 36.44404 | 27.89046 | 15980 ft | 429 kts | 102° |
| 2026-05-01 07:46 | 36.43502 | 27.92512 | 15382 ft | 424 kts | 117° |
| 2026-05-01 07:46 | 36.41956 | 27.95582 | 14832 ft | 416 kts | 129° |
| 2026-05-01 07:46 | 36.38447 | 28.01108 | 14027 ft | 401 kts | 131° |
| 2026-05-01 07:47 | 36.36731 | 28.03807 | 13653 ft | 393 kts | 130° |
| 2026-05-01 07:47 | 36.35076 | 28.06450 | 13304 ft | 386 kts | 130° |
| 2026-05-01 07:47 | 36.33449 | 28.09086 | 12944 ft | 379 kts | 129° |
| 2026-05-01 07:47 | 36.31923 | 28.11697 | 12562 ft | 373 kts | 128° |
| 2026-05-01 07:48 | 36.28967 | 28.16850 | 11783 ft | 362 kts | 127° |
| 2026-05-01 07:48 | 36.27513 | 28.19374 | 11404 ft | 357 kts | 128° |
| 2026-05-01 07:48 | 36.26088 | 28.21836 | 11028 ft | 351 kts | 128° |
| 2026-05-01 07:49 | 36.24674 | 28.24270 | 10651 ft | 346 kts | 127° |
| 2026-05-01 07:49 | 36.22265 | 28.29290 | 9863 ft | 339 kts | 102° |
| 2026-05-01 07:49 | 36.22314 | 28.32162 | 9479 ft | 332 kts | 72° |
| 2026-05-01 07:50 | 36.23405 | 28.34568 | 9096 ft | 321 kts | 43° |
| 2026-05-01 07:50 | 36.27319 | 28.36076 | 8372 ft | 293 kts | 347° |
| 2026-05-01 07:50 | 36.29293 | 28.35716 | 7933 ft | 285 kts | 353° |
| 2026-05-01 07:51 | 36.31256 | 28.35789 | 7367 ft | 282 kts | 3° |
| 2026-05-01 07:51 | 36.33170 | 28.36159 | 6801 ft | 278 kts | 7° |
| 2026-05-01 07:51 | 36.35041 | 28.36648 | 6211 ft | 274 kts | 9° |
| 2026-05-01 07:52 | 36.38697 | 28.37712 | 5112 ft | 263 kts | 11° |
| 2026-05-01 07:52 | 36.40458 | 28.38236 | 4684 ft | 254 kts | 11° |
| 2026-05-01 07:52 | 36.42147 | 28.38730 | 4209 ft | 249 kts | 8° |
| 2026-05-01 07:53 | 36.45374 | 28.38008 | 3194 ft | 236 kts | 324° |
| 2026-05-01 07:53 | 36.46534 | 28.36673 | 2942 ft | 221 kts | 306° |
| 2026-05-01 07:53 | 36.47229 | 28.35041 | 2718 ft | 206 kts | 289° |
| 2026-05-01 07:53 | 36.47438 | 28.33351 | 2402 ft | 196 kts | 269° |
| 2026-05-01 07:54 | 36.46855 | 28.30265 | 2004 ft | 165 kts | 254° |
| 2026-05-01 07:55 | 36.45782 | 28.26483 | 1984 ft | 148 kts | 252° |
| 2026-05-01 07:55 | 36.45087 | 28.24117 | 1984 ft | 145 kts | 252° |
| 2026-05-01 07:56 | 36.44047 | 28.20590 | 1698 ft | 145 kts | 252° |
| 2026-05-01 07:56 | 36.43358 | 28.18249 | 1328 ft | 143 kts | 252° |
| 2026-05-01 07:57 | 36.43023 | 28.17105 | 1145 ft | 142 kts | 252° |
| 2026-05-01 07:57 | 36.42340 | 28.14806 | 783 ft | 141 kts | 251° |
| 2026-05-01 07:58 | 36.41683 | 28.12530 | 425 ft | 140 kts | 252° |
| 2026-05-01 07:58 | 36.41028 | 28.10289 | 45 ft | 137 kts | 250° |
| 2026-05-01 07:59 | 36.40522 | 28.08574 | 25 ft | 58 kts | 250° |
| 2026-05-01 07:59 | 36.40293 | 28.07971 | 23 ft | 20 kts | 220° |
| 2026-05-01 08:00 | 36.40226 | 28.08179 | 23 ft | 18 kts | 70° |
| 2026-05-01 08:01 | 36.40368 | 28.08660 | 29 ft | 20 kts | 70° |
| 2026-05-01 08:01 | 36.40402 | 28.08803 | 33 ft | 15 kts | 84° |
| 2026-05-01 08:01 | 36.40397 | 28.08922 | 33 ft | 7 kts | 97° |
| 2026-05-01 08:02 | 36.40364 | 28.08964 | 38 ft | 4 kts | 155° |
| 2026-05-01 08:02 | 36.40333 | 28.08980 | 41 ft | 3 kts | 159° |
| 2026-05-01 08:03 | 36.40328 | 28.08982 | 41 ft | 0 kts | 160° |